createdAt,value
2022-07-30T00:00:27.547Z,16.70
2022-07-30T00:02:55.553Z,16.70
2022-07-30T00:05:23.911Z,16.80
2022-07-30T00:07:51.933Z,16.80
2022-07-30T00:10:20.726Z,16.80
2022-07-30T00:12:48.755Z,16.80
2022-07-30T00:15:18.099Z,16.80
2022-07-30T00:17:49.290Z,16.80
2022-07-30T00:20:17.800Z,16.80
2022-07-30T00:22:46.754Z,16.90
2022-07-30T00:25:14.806Z,16.90
2022-07-30T00:27:44.370Z,16.90
2022-07-30T00:30:12.959Z,16.90
2022-07-30T00:32:42.349Z,16.90
2022-07-30T00:35:10.942Z,16.90
2022-07-30T00:37:38.934Z,16.90
2022-07-30T00:40:08.029Z,16.90
2022-07-30T00:42:43.045Z,16.90
2022-07-30T00:45:12.108Z,16.90
2022-07-30T00:47:40.107Z,16.80
2022-07-30T00:50:10.931Z,16.70
2022-07-30T00:52:39.445Z,16.70
2022-07-30T00:55:08.613Z,16.70
2022-07-30T00:57:36.640Z,16.70
2022-07-30T01:00:05.562Z,16.70
2022-07-30T01:02:33.690Z,16.70
2022-07-30T01:05:01.686Z,16.80
2022-07-30T01:07:31.071Z,16.80
2022-07-30T01:09:59.100Z,16.80
2022-07-30T01:12:28.035Z,16.80
2022-07-30T01:14:56.930Z,16.80
2022-07-30T01:17:25.134Z,16.80
2022-07-30T01:19:56.057Z,16.70
2022-07-30T01:22:30.620Z,16.70
2022-07-30T01:25:05.506Z,16.70
2022-07-30T01:27:37.742Z,16.70
2022-07-30T01:30:06.578Z,16.70
2022-07-30T01:32:39.687Z,16.70
2022-07-30T01:35:08.729Z,16.70
2022-07-30T01:37:37.006Z,16.90
2022-07-30T01:40:05.593Z,16.90
2022-07-30T01:42:36.040Z,16.80
2022-07-30T01:45:05.035Z,16.80
2022-07-30T01:47:34.373Z,16.80
2022-07-30T01:50:03.065Z,16.90
2022-07-30T01:52:33.461Z,16.90
2022-07-30T01:55:01.835Z,17.00
2022-07-30T01:57:30.873Z,16.90
2022-07-30T02:00:02.445Z,16.90
2022-07-30T02:02:30.499Z,17.00
2022-07-30T02:04:58.729Z,16.90
2022-07-30T02:07:31.673Z,16.80
2022-07-30T02:10:02.092Z,16.80
2022-07-30T02:12:32.223Z,16.80
2022-07-30T02:15:13.492Z,16.80
2022-07-30T02:17:45.158Z,16.80
2022-07-30T02:20:14.710Z,16.80
2022-07-30T02:22:45.072Z,16.80
2022-07-30T02:25:17.038Z,16.80
2022-07-30T02:27:46.613Z,16.80
2022-07-30T02:30:16.837Z,16.70
2022-07-30T02:32:46.036Z,16.60
2022-07-30T02:35:16.954Z,16.60
2022-07-30T02:37:46.413Z,16.60
2022-07-30T02:40:16.743Z,16.60
2022-07-30T02:42:46.542Z,16.60
2022-07-30T02:45:17.827Z,16.60
2022-07-30T02:47:47.689Z,16.50
2022-07-30T02:50:16.669Z,16.40
2022-07-30T02:52:45.970Z,16.40
2022-07-30T02:55:14.338Z,16.30
2022-07-30T02:57:43.995Z,16.30
2022-07-30T03:00:12.746Z,16.30
2022-07-30T03:02:43.615Z,16.30
2022-07-30T03:05:14.915Z,16.30
2022-07-30T03:07:43.338Z,16.40
2022-07-30T03:10:12.417Z,16.40
2022-07-30T03:12:41.949Z,16.30
2022-07-30T03:15:10.866Z,16.30
2022-07-30T03:17:40.251Z,16.40
2022-07-30T03:20:09.837Z,16.40
2022-07-30T03:22:41.643Z,16.40
2022-07-30T03:25:10.598Z,16.40
2022-07-30T03:27:39.467Z,16.40
2022-07-30T03:30:08.292Z,16.40
2022-07-30T03:32:36.682Z,16.40
2022-07-30T03:35:06.617Z,16.40
2022-07-30T03:37:37.899Z,16.40
2022-07-30T03:40:08.433Z,16.40
2022-07-30T03:42:36.865Z,16.40
2022-07-30T03:45:05.856Z,16.40
2022-07-30T03:47:34.569Z,16.40
2022-07-30T03:50:02.706Z,16.50
2022-07-30T03:52:31.130Z,16.60
2022-07-30T03:54:59.317Z,16.60
2022-07-30T03:57:28.714Z,16.60
2022-07-30T03:59:56.814Z,16.70
2022-07-30T04:02:24.810Z,16.70
2022-07-30T04:04:52.991Z,16.80
2022-07-30T04:07:20.982Z,16.80
2022-07-30T04:09:49.112Z,16.90
2022-07-30T04:12:17.078Z,17.00
2022-07-30T04:14:46.472Z,17.10
2022-07-30T04:17:17.750Z,17.00
2022-07-30T04:19:48.164Z,17.00
2022-07-30T04:22:18.118Z,16.90
2022-07-30T04:24:46.190Z,16.90
2022-07-30T04:27:14.879Z,16.80
2022-07-30T04:29:42.974Z,16.80
2022-07-30T04:32:12.741Z,16.80
2022-07-30T04:34:46.906Z,16.80
2022-07-30T04:37:16.360Z,16.80
2022-07-30T04:39:44.686Z,16.80
2022-07-30T04:42:12.884Z,16.90
2022-07-30T04:44:40.888Z,17.00
2022-07-30T04:47:08.894Z,17.00
2022-07-30T04:49:38.728Z,17.00
2022-07-30T04:52:07.698Z,17.00
2022-07-30T04:54:39.174Z,17.00
2022-07-30T04:57:08.272Z,17.00
2022-07-30T04:59:37.325Z,17.00
2022-07-30T05:02:05.855Z,17.00
2022-07-30T05:04:35.452Z,17.00
2022-07-30T05:07:05.351Z,17.10
2022-07-30T05:09:33.487Z,17.10
2022-07-30T05:12:01.520Z,17.10
2022-07-30T05:14:29.835Z,17.10
2022-07-30T05:16:58.021Z,17.20
2022-07-30T05:19:26.139Z,17.10
2022-07-30T05:21:54.410Z,17.20
2022-07-30T05:24:23.770Z,17.20
2022-07-30T05:26:51.827Z,17.20
2022-07-30T05:29:20.369Z,17.30
2022-07-30T05:31:48.856Z,17.40
2022-07-30T05:34:17.219Z,17.40
2022-07-30T05:36:45.444Z,17.50
2022-07-30T05:39:13.475Z,17.50
2022-07-30T05:41:42.866Z,17.60
2022-07-30T05:44:10.910Z,17.60
2022-07-30T05:46:38.979Z,17.70
2022-07-30T05:49:07.501Z,17.70
2022-07-30T05:51:35.609Z,17.80
2022-07-30T05:54:03.597Z,17.80
2022-07-30T05:56:31.612Z,17.80
2022-07-30T05:59:00.965Z,18.00
2022-07-30T06:01:29.212Z,18.20
2022-07-30T06:03:57.277Z,18.40
2022-07-30T06:06:25.322Z,18.70
2022-07-30T06:08:53.718Z,19.30
2022-07-30T06:11:21.660Z,19.80
2022-07-30T06:13:49.653Z,19.90
2022-07-30T06:16:19.117Z,19.80
2022-07-30T06:18:47.173Z,20.00
2022-07-30T06:21:15.178Z,20.30
2022-07-30T06:23:43.229Z,20.60
2022-07-30T06:26:11.202Z,20.70
2022-07-30T06:28:39.687Z,20.70
2022-07-30T06:31:08.024Z,20.80
2022-07-30T06:33:37.422Z,21.00
2022-07-30T06:36:05.491Z,21.00
2022-07-30T06:38:33.494Z,21.10
2022-07-30T06:41:02.879Z,21.30
2022-07-30T06:43:32.630Z,21.50
2022-07-30T06:46:00.912Z,21.50
2022-07-30T06:48:31.021Z,21.30
2022-07-30T06:51:00.469Z,21.40
2022-07-30T06:53:28.670Z,21.60
2022-07-30T06:55:58.491Z,22.20
2022-07-30T06:58:28.744Z,22.60
2022-07-30T07:00:56.781Z,22.60
2022-07-30T07:03:39.555Z,22.60
2022-07-30T07:06:10.156Z,22.50
2022-07-30T07:08:38.647Z,22.30
2022-07-30T07:11:06.700Z,22.30
2022-07-30T07:13:34.649Z,22.40
2022-07-30T07:16:02.696Z,22.50
2022-07-30T07:18:30.697Z,22.50
2022-07-30T07:20:58.720Z,22.50
2022-07-30T07:23:41.835Z,22.60
2022-07-30T07:26:11.043Z,22.70
2022-07-30T07:28:40.148Z,22.90
2022-07-30T07:31:08.325Z,23.10
2022-07-30T07:33:36.407Z,23.70
2022-07-30T07:36:04.518Z,24.70
2022-07-30T07:38:34.451Z,25.10
2022-07-30T07:41:02.440Z,25.90
2022-07-30T07:43:30.458Z,26.90
2022-07-30T07:45:58.442Z,27.60
2022-07-30T07:48:26.491Z,28.60
2022-07-30T07:50:59.653Z,29.50
2022-07-30T07:53:28.382Z,30.20
2022-07-30T07:55:57.877Z,29.80
2022-07-30T07:58:26.414Z,30.00
2022-07-30T08:00:55.270Z,30.00
2022-07-30T08:03:23.317Z,29.60
2022-07-30T08:06:00.794Z,29.20
2022-07-30T08:08:36.651Z,29.40
2022-07-30T08:11:07.469Z,29.90
2022-07-30T08:13:48.538Z,30.90
2022-07-30T08:16:20.830Z,31.60
2022-07-30T08:18:48.958Z,31.70
2022-07-30T08:21:16.949Z,32.30
2022-07-30T08:23:44.978Z,32.90
2022-07-30T08:26:14.376Z,33.10
2022-07-30T08:28:43.239Z,33.30
2022-07-30T08:31:11.300Z,33.50
2022-07-30T08:33:39.264Z,34.20
2022-07-30T08:36:09.518Z,34.80
2022-07-30T08:38:38.593Z,35.00
2022-07-30T08:41:07.641Z,35.40
2022-07-30T08:43:38.024Z,36.00
2022-07-30T08:46:06.968Z,36.30
2022-07-30T08:48:35.257Z,36.70
2022-07-30T08:51:03.470Z,37.20
2022-07-30T08:53:33.219Z,37.50
2022-07-30T08:56:01.829Z,37.30
2022-07-30T08:58:30.626Z,37.50
2022-07-30T09:01:00.136Z,37.50
2022-07-30T09:03:28.209Z,36.50
2022-07-30T09:05:56.179Z,36.50
2022-07-30T09:08:24.214Z,36.30
2022-07-30T09:10:53.518Z,35.70
2022-07-30T09:13:25.682Z,35.30
2022-07-30T09:15:54.299Z,35.30
2022-07-30T09:18:30.975Z,35.40
2022-07-30T09:20:59.878Z,35.40
2022-07-30T09:23:27.938Z,36.00
2022-07-30T09:25:57.115Z,36.30
2022-07-30T09:28:31.693Z,35.40
2022-07-30T09:30:59.967Z,34.70
2022-07-30T09:33:36.824Z,34.90
2022-07-30T09:36:05.904Z,35.30
2022-07-30T09:38:43.659Z,35.70
2022-07-30T09:41:23.071Z,36.40
2022-07-30T09:44:00.107Z,36.60
2022-07-30T09:46:41.767Z,36.60
2022-07-30T09:49:17.095Z,36.60
2022-07-30T09:51:55.833Z,36.80
2022-07-30T09:54:25.776Z,37.00
2022-07-30T09:57:25.626Z,37.40
2022-07-30T09:59:55.810Z,37.90
2022-07-30T10:02:32.392Z,38.00
2022-07-30T10:05:14.310Z,37.30
2022-07-30T10:07:53.329Z,36.70
2022-07-30T10:10:25.694Z,35.60
2022-07-30T10:12:58.172Z,35.00
2022-07-30T10:15:29.073Z,35.40
2022-07-30T10:17:57.778Z,36.00
2022-07-30T10:20:27.446Z,36.30
2022-07-30T10:22:55.947Z,36.90
2022-07-30T10:25:27.780Z,37.00
2022-07-30T10:27:57.139Z,37.30
2022-07-30T10:30:27.663Z,37.60
2022-07-30T10:32:57.779Z,37.70
2022-07-30T10:35:34.980Z,37.40
2022-07-30T10:38:09.409Z,37.40
2022-07-30T10:40:43.317Z,37.00
2022-07-30T10:43:24.398Z,37.40
2022-07-30T10:46:04.360Z,38.00
2022-07-30T10:48:33.691Z,37.80
2022-07-30T10:51:03.220Z,38.10
2022-07-30T10:53:36.478Z,37.30
2022-07-30T10:56:14.545Z,37.20
2022-07-30T10:59:03.107Z,37.40
2022-07-30T11:01:53.206Z,37.20
2022-07-30T11:04:25.843Z,36.70
2022-07-30T11:07:17.495Z,36.90
2022-07-30T11:09:49.711Z,36.80
2022-07-30T11:12:52.723Z,36.80
2022-07-30T11:15:22.378Z,36.30
2022-07-30T11:18:04.347Z,36.40
2022-07-30T11:20:32.963Z,36.70
2022-07-30T11:23:35.440Z,37.20
2022-07-30T11:26:04.016Z,37.40
2022-07-30T11:28:35.482Z,36.40
2022-07-30T11:31:10.078Z,36.40
2022-07-30T11:33:39.170Z,36.40
2022-07-30T11:36:11.816Z,36.70
2022-07-30T11:38:54.939Z,36.90
2022-07-30T11:41:23.351Z,37.10
2022-07-30T11:44:06.133Z,37.30
2022-07-30T11:46:34.218Z,37.40
2022-07-30T11:49:08.634Z,37.60
2022-07-30T11:51:41.306Z,37.70
2022-07-30T11:54:12.194Z,38.00
2022-07-30T11:56:49.229Z,38.30
2022-07-30T11:59:17.228Z,38.30
2022-07-30T12:01:45.556Z,38.00
2022-07-30T12:04:13.627Z,37.40
2022-07-30T12:06:45.114Z,36.90
2022-07-30T12:09:22.154Z,36.50
2022-07-30T12:11:50.138Z,36.00
2022-07-30T12:14:18.202Z,35.60
2022-07-30T12:16:51.135Z,35.30
2022-07-30T12:19:19.684Z,34.90
2022-07-30T12:21:52.768Z,34.50
2022-07-30T12:24:27.326Z,34.60
2022-07-30T12:27:05.305Z,35.00
2022-07-30T12:29:34.225Z,35.20
2022-07-30T12:32:03.285Z,35.60
2022-07-30T12:34:31.253Z,35.60
2022-07-30T12:37:08.132Z,35.60
2022-07-30T12:39:37.544Z,35.60
2022-07-30T12:42:05.962Z,35.90
2022-07-30T12:44:37.381Z,36.10
2022-07-30T12:47:06.653Z,36.50
2022-07-30T12:49:39.317Z,36.50
2022-07-30T12:52:28.777Z,36.30
2022-07-30T12:55:08.987Z,35.80
2022-07-30T12:58:02.883Z,36.00
2022-07-30T13:00:36.089Z,36.30
2022-07-30T13:03:20.380Z,36.00
2022-07-30T13:05:49.817Z,35.90
2022-07-30T13:08:18.211Z,34.70
2022-07-30T13:10:57.102Z,33.90
2022-07-30T13:13:27.570Z,33.40
2022-07-30T13:15:59.989Z,33.00
2022-07-30T13:18:28.430Z,32.80
2022-07-30T13:20:56.440Z,33.10
2022-07-30T13:23:24.517Z,33.40
2022-07-30T13:25:52.729Z,33.40
2022-07-30T13:28:22.121Z,33.10
2022-07-30T13:30:50.296Z,32.60
2022-07-30T13:33:18.944Z,32.40
2022-07-30T13:35:47.090Z,31.70
2022-07-30T13:38:15.701Z,31.10
2022-07-30T13:40:43.736Z,30.50
2022-07-30T13:43:11.807Z,30.10
2022-07-30T13:45:41.159Z,29.80
2022-07-30T13:48:09.184Z,29.20
2022-07-30T13:50:37.249Z,28.30
2022-07-30T13:53:06.618Z,28.00
2022-07-30T13:55:34.663Z,27.80
2022-07-30T13:58:02.746Z,27.70
2022-07-30T14:00:32.593Z,27.20
2022-07-30T14:03:03.287Z,27.00
2022-07-30T14:05:31.457Z,26.90
2022-07-30T14:07:59.460Z,27.00
2022-07-30T14:10:27.541Z,27.10
2022-07-30T14:12:57.194Z,27.00
2022-07-30T14:15:26.027Z,26.90
2022-07-30T14:17:55.988Z,26.80
2022-07-30T14:20:29.014Z,26.60
2022-07-30T14:22:57.437Z,26.50
2022-07-30T14:25:25.923Z,26.50
2022-07-30T14:27:53.914Z,26.50
2022-07-30T14:30:23.213Z,26.60
2022-07-30T14:32:57.351Z,26.50
2022-07-30T14:35:28.883Z,26.30
2022-07-30T14:37:56.879Z,26.20
2022-07-30T14:40:24.954Z,26.10
2022-07-30T14:42:52.978Z,26.10
2022-07-30T14:45:24.382Z,26.00
2022-07-30T14:47:53.843Z,26.00
2022-07-30T14:50:22.005Z,26.00
2022-07-30T14:52:52.114Z,25.90
2022-07-30T14:55:20.212Z,26.00
2022-07-30T14:57:48.666Z,26.00
2022-07-30T15:00:17.029Z,26.10
2022-07-30T15:02:45.156Z,26.20
2022-07-30T15:05:13.167Z,26.10
2022-07-30T15:07:41.343Z,26.00
2022-07-30T15:10:13.551Z,26.00
2022-07-30T15:12:43.813Z,26.00
2022-07-30T15:15:12.696Z,25.90
2022-07-30T15:17:42.656Z,25.80
2022-07-30T15:20:11.362Z,25.80
2022-07-30T15:22:39.712Z,25.80
2022-07-30T15:25:08.469Z,25.70
2022-07-30T15:27:37.942Z,25.80
2022-07-30T15:30:06.543Z,25.80
2022-07-30T15:32:34.553Z,25.90
2022-07-30T15:35:02.580Z,26.00
2022-07-30T15:37:30.632Z,26.00
2022-07-30T15:39:58.662Z,26.00
2022-07-30T15:42:27.381Z,26.10
2022-07-30T15:45:16.046Z,26.30
2022-07-30T15:47:44.881Z,26.30
2022-07-30T15:50:13.350Z,26.10
2022-07-30T15:52:41.356Z,25.90
2022-07-30T15:55:09.599Z,25.80
2022-07-30T15:57:37.892Z,25.80
2022-07-30T16:00:08.723Z,25.70
2022-07-30T16:02:36.783Z,25.50
2022-07-30T16:05:05.155Z,25.50
2022-07-30T16:07:33.265Z,25.50
2022-07-30T16:10:01.272Z,25.60
2022-07-30T16:12:29.289Z,25.80
2022-07-30T16:14:57.529Z,25.90
2022-07-30T16:17:27.044Z,25.90
2022-07-30T16:19:55.038Z,26.00
2022-07-30T16:22:24.215Z,25.80
2022-07-30T16:24:52.737Z,25.70
2022-07-30T16:27:20.767Z,25.60
2022-07-30T16:29:48.796Z,25.60
2022-07-30T16:32:16.865Z,25.50
2022-07-30T16:34:46.287Z,25.30
2022-07-30T16:37:15.284Z,25.20
2022-07-30T16:39:43.258Z,25.10
2022-07-30T16:42:11.866Z,25.00
2022-07-30T16:44:40.682Z,25.00
2022-07-30T16:47:13.320Z,25.00
2022-07-30T16:49:41.910Z,24.70
2022-07-30T16:52:11.316Z,25.00
2022-07-30T16:54:39.295Z,25.10
2022-07-30T16:57:10.413Z,25.20
2022-07-30T16:59:38.984Z,25.30
2022-07-30T17:02:12.420Z,25.30
2022-07-30T17:04:41.533Z,25.30
2022-07-30T17:07:09.614Z,25.30
2022-07-30T17:09:38.974Z,25.40
2022-07-30T17:12:12.174Z,25.30
2022-07-30T17:14:41.162Z,25.20
2022-07-30T17:17:13.843Z,25.20
2022-07-30T17:19:42.133Z,25.20
2022-07-30T17:22:10.149Z,25.10
2022-07-30T17:24:40.012Z,25.00
2022-07-30T17:27:08.032Z,24.90
2022-07-30T17:29:49.857Z,24.80
2022-07-30T17:32:18.651Z,24.70
2022-07-30T17:34:46.708Z,24.70
2022-07-30T17:37:14.721Z,24.60
2022-07-30T17:40:19.919Z,24.50
2022-07-30T17:42:32.120Z,24.50
2022-07-30T17:45:01.368Z,24.40
2022-07-30T17:47:29.547Z,24.30
2022-07-30T17:49:57.559Z,24.20
2022-07-30T17:52:26.644Z,24.10
2022-07-30T17:54:56.686Z,24.00
2022-07-30T17:57:24.747Z,23.90
2022-07-30T17:59:52.784Z,23.80
2022-07-30T18:02:27.558Z,23.80
2022-07-30T18:04:56.934Z,23.70
2022-07-30T18:07:25.511Z,23.70
2022-07-30T18:09:53.728Z,23.60
2022-07-30T18:12:23.326Z,23.50
2022-07-30T18:14:51.393Z,23.50
2022-07-30T18:17:19.376Z,23.50
2022-07-30T18:19:47.421Z,23.50
2022-07-30T18:22:16.576Z,23.40
2022-07-30T18:24:57.674Z,23.40
2022-07-30T18:27:27.910Z,23.40
2022-07-30T18:29:55.902Z,23.40
2022-07-30T18:32:25.061Z,23.40
2022-07-30T18:34:53.062Z,23.40
2022-07-30T18:37:21.055Z,23.30
2022-07-30T18:39:49.155Z,23.20
2022-07-30T18:42:17.453Z,23.20
2022-07-30T18:47:27.650Z,23.20
2022-07-30T18:49:56.469Z,23.20
2022-07-30T18:52:24.534Z,23.10
2022-07-30T18:54:52.518Z,23.20
2022-07-30T18:57:20.892Z,23.10
2022-07-30T18:59:48.905Z,23.00
2022-07-30T19:02:16.857Z,22.90
2022-07-30T19:04:46.236Z,22.90
2022-07-30T19:07:14.232Z,22.80
2022-07-30T19:09:43.044Z,22.80
2022-07-30T19:12:11.097Z,22.70
2022-07-30T19:14:39.099Z,22.70
2022-07-30T19:17:13.870Z,22.60
2022-07-30T19:19:43.246Z,22.60
2022-07-30T19:22:12.765Z,22.60
2022-07-30T19:24:40.798Z,22.50
2022-07-30T19:27:13.681Z,22.50
2022-07-30T19:29:42.506Z,22.50
2022-07-30T19:32:10.511Z,22.60
2022-07-30T19:34:39.540Z,22.50
2022-07-30T19:37:07.694Z,22.60
2022-07-30T19:39:37.164Z,22.50
2022-07-30T19:42:26.147Z,22.50
2022-07-30T19:44:55.201Z,22.50
2022-07-30T19:47:26.139Z,22.40
2022-07-30T19:49:54.277Z,22.50
2022-07-30T19:52:26.264Z,22.40
2022-07-30T19:54:55.982Z,22.40
2022-07-30T19:57:24.026Z,22.40
2022-07-30T20:00:12.556Z,22.50
2022-07-30T20:02:40.681Z,22.30
2022-07-30T20:05:11.731Z,22.20
2022-07-30T20:07:42.397Z,22.10
2022-07-30T20:10:13.955Z,22.00
2022-07-30T20:12:49.418Z,22.00
2022-07-30T20:15:18.321Z,21.80
2022-07-30T20:17:46.666Z,21.70
2022-07-30T20:20:14.777Z,21.70
2022-07-30T20:22:42.811Z,21.60
2022-07-30T20:25:11.215Z,21.60
2022-07-30T20:27:42.181Z,21.60
2022-07-30T20:30:11.773Z,21.60
2022-07-30T20:32:46.418Z,21.60
2022-07-30T20:35:14.835Z,21.60
2022-07-30T20:37:54.901Z,21.60
2022-07-30T20:40:23.866Z,21.50
2022-07-30T20:42:54.339Z,21.40
2022-07-30T20:45:24.848Z,21.40
2022-07-30T20:47:56.346Z,21.30
2022-07-30T20:50:30.483Z,21.30
2022-07-30T20:52:59.567Z,21.40
2022-07-30T20:55:27.809Z,21.30
2022-07-30T20:58:12.608Z,21.30
2022-07-30T21:00:49.622Z,21.30
2022-07-30T21:03:21.200Z,21.20
2022-07-30T21:05:51.240Z,21.20
2022-07-30T21:08:21.337Z,21.10
2022-07-30T21:10:55.013Z,21.00
2022-07-30T21:13:26.193Z,21.00
2022-07-30T21:16:01.520Z,20.90
2022-07-30T21:18:30.837Z,20.90
2022-07-30T21:20:58.938Z,20.80
2022-07-30T21:23:29.062Z,20.80
2022-07-30T21:26:00.818Z,20.80
2022-07-30T21:28:35.204Z,20.70
2022-07-30T21:31:04.026Z,20.70
2022-07-30T21:33:36.176Z,20.80
2022-07-30T21:36:04.205Z,20.70
2022-07-30T21:38:34.489Z,20.70
2022-07-30T21:41:02.741Z,20.70
2022-07-30T21:43:40.290Z,20.60
2022-07-30T21:46:10.555Z,20.50
2022-07-30T21:48:39.702Z,20.50
2022-07-30T21:51:09.965Z,20.50
2022-07-30T21:53:45.333Z,20.40
2022-07-30T21:56:14.615Z,20.40
2022-07-30T21:58:45.586Z,20.40
2022-07-30T22:01:21.761Z,20.40
2022-07-30T22:06:41.496Z,20.40
2022-07-30T22:09:19.675Z,20.30
2022-07-30T22:12:01.484Z,20.30
2022-07-30T22:14:31.747Z,20.30
2022-07-30T22:17:00.519Z,20.30
2022-07-30T22:19:32.170Z,20.30
2022-07-30T22:22:03.533Z,20.30
2022-07-30T22:24:48.174Z,20.30
2022-07-30T22:27:16.186Z,20.20
2022-07-30T22:29:48.035Z,20.20
2022-07-30T22:32:16.220Z,20.20
2022-07-30T22:34:44.870Z,20.10
2022-07-30T22:37:15.582Z,20.10
2022-07-30T22:39:51.600Z,20.10
2022-07-30T22:42:24.030Z,20.20
2022-07-30T22:47:50.331Z,20.30
2022-07-30T22:50:21.230Z,20.20
2022-07-30T22:53:01.829Z,20.20
2022-07-30T22:55:42.099Z,20.20
2022-07-30T22:58:12.304Z,20.00
2022-07-30T23:00:41.695Z,20.00
2022-07-30T23:03:09.799Z,20.00
2022-07-30T23:05:37.810Z,20.00
2022-07-30T23:08:08.068Z,19.90
2022-07-30T23:10:36.642Z,19.90
2022-07-30T23:12:30.391Z,20.20
2022-07-30T23:12:33.097Z,20.40
2022-07-30T23:13:04.708Z,19.90
2022-07-30T23:15:32.912Z,20.00
2022-07-30T23:18:02.804Z,20.00
2022-07-30T23:20:30.852Z,20.00
2022-07-30T23:22:59.212Z,20.00
2022-07-30T23:25:27.304Z,20.00
2022-07-30T23:28:06.430Z,20.00
2022-07-30T23:30:34.558Z,20.00
2022-07-30T23:33:03.942Z,20.00
2022-07-30T23:35:31.917Z,20.00
2022-07-30T23:37:59.914Z,19.90
2022-07-30T23:40:28.411Z,19.90
2022-07-30T23:42:57.357Z,19.90
2022-07-30T23:45:25.337Z,20.00
2022-07-30T23:48:01.665Z,20.00
2022-07-30T23:50:33.314Z,20.00
2022-07-30T23:53:01.807Z,20.00
2022-07-30T23:55:30.103Z,20.00
2022-07-30T23:57:58.374Z,20.00
